AFR1A LFPG-LFLL
Flight info
| Callsign | AFR1A |
|---|---|
| Flight time | 0h 44m |
| Altitude | 25000 |
| Route | OKASI DCT OKEKO DCT OKEPI DCT MOU/N0380F190 A3 FEDZI |
| Aircraft | A319/M-SDE3FGHIRWY/LB1 |
Departure
| Time | 2026-05-05 19:21 |
|---|---|
| Airport | Charles de Gaulle International Airport (LFPG) |
Arrival
| Time | 2026-05-05 20:06 |
|---|---|
| Airport | Lyon Saint-Exupéry Airport (LFLL) |
| Time | Latitude | Longitude | Altitude | Speed | Heading |
|---|---|---|---|---|---|
| 2026-05-05 18:50 | 49.00162 | 2.58115 | 340 ft | 0 kts | 356° |
| 2026-05-05 19:11 | 49.00158 | 2.58115 | 340 ft | 2 kts | 357° |
| 2026-05-05 19:11 | 49.00143 | 2.58117 | 340 ft | 2 kts | 356° |
| 2026-05-05 19:11 | 49.00128 | 2.58118 | 339 ft | 2 kts | 356° |
| 2026-05-05 19:12 | 49.00113 | 2.58120 | 339 ft | 2 kts | 357° |
| 2026-05-05 19:12 | 49.00103 | 2.58121 | 339 ft | 1 kts | 357° |
| 2026-05-05 19:12 | 49.00090 | 2.58125 | 338 ft | 1 kts | 321° |
| 2026-05-05 19:12 | 49.00083 | 2.58142 | 338 ft | 1 kts | 277° |
| 2026-05-05 19:13 | 49.00084 | 2.58156 | 338 ft | 1 kts | 257° |
| 2026-05-05 19:13 | 49.00085 | 2.58162 | 338 ft | 0 kts | 265° |
| 2026-05-05 19:15 | 49.00083 | 2.58125 | 338 ft | 7 kts | 266° |
| 2026-05-05 19:15 | 49.00079 | 2.58047 | 340 ft | 7 kts | 265° |
| 2026-05-05 19:16 | 49.00073 | 2.57936 | 342 ft | 11 kts | 266° |
| 2026-05-05 19:16 | 49.00067 | 2.57820 | 344 ft | 10 kts | 264° |
| 2026-05-05 19:16 | 49.00042 | 2.57745 | 345 ft | 5 kts | 204° |
| 2026-05-05 19:16 | 48.99987 | 2.57700 | 345 ft | 13 kts | 237° |
| 2026-05-05 19:17 | 48.99972 | 2.57565 | 346 ft | 13 kts | 265° |
| 2026-05-05 19:17 | 48.99960 | 2.57373 | 349 ft | 19 kts | 265° |
| 2026-05-05 19:17 | 48.99950 | 2.57170 | 351 ft | 18 kts | 266° |
| 2026-05-05 19:17 | 48.99939 | 2.56973 | 351 ft | 18 kts | 265° |
| 2026-05-05 19:18 | 48.99929 | 2.56772 | 350 ft | 19 kts | 265° |
| 2026-05-05 19:18 | 48.99919 | 2.56594 | 348 ft | 16 kts | 265° |
| 2026-05-05 19:18 | 48.99909 | 2.56412 | 346 ft | 18 kts | 265° |
| 2026-05-05 19:18 | 48.99898 | 2.56207 | 342 ft | 20 kts | 265° |
| 2026-05-05 19:19 | 48.99889 | 2.56025 | 339 ft | 14 kts | 266° |
| 2026-05-05 19:19 | 48.99900 | 2.55886 | 336 ft | 12 kts | 284° |
| 2026-05-05 19:19 | 48.99862 | 2.55800 | 334 ft | 12 kts | 188° |
| 2026-05-05 19:19 | 48.99773 | 2.55805 | 334 ft | 13 kts | 176° |
| 2026-05-05 19:20 | 48.99675 | 2.55818 | 334 ft | 14 kts | 175° |
| 2026-05-05 19:20 | 48.99611 | 2.55859 | 334 ft | 10 kts | 120° |
| 2026-05-05 19:20 | 48.99606 | 2.55954 | 335 ft | 7 kts | 85° |
| 2026-05-05 19:20 | 48.99624 | 2.56300 | 339 ft | 68 kts | 85° |
| 2026-05-05 19:21 | 48.99682 | 2.57389 | 345 ft | 136 kts | 84° |
| 2026-05-05 19:21 | 48.99759 | 2.59020 | 636 ft | 164 kts | 83° |
| 2026-05-05 19:21 | 48.99840 | 2.60741 | 1382 ft | 165 kts | 82° |
| 2026-05-05 19:21 | 48.99916 | 2.62435 | 2268 ft | 161 kts | 82° |
| 2026-05-05 19:22 | 48.99997 | 2.64176 | 2786 ft | 174 kts | 80° |
| 2026-05-05 19:22 | 49.00113 | 2.66085 | 3196 ft | 192 kts | 80° |
| 2026-05-05 19:22 | 49.00260 | 2.68199 | 3637 ft | 213 kts | 80° |
| 2026-05-05 19:22 | 49.00433 | 2.70554 | 4109 ft | 235 kts | 81° |
| 2026-05-05 19:23 | 49.00594 | 2.73155 | 4600 ft | 258 kts | 83° |
| 2026-05-05 19:23 | 49.00693 | 2.75916 | 5386 ft | 268 kts | 85° |
| 2026-05-05 19:23 | 49.00745 | 2.78762 | 6257 ft | 276 kts | 90° |
| 2026-05-05 19:23 | 49.00609 | 2.81637 | 7289 ft | 277 kts | 96° |
| 2026-05-05 19:24 | 49.00016 | 2.84372 | 8223 ft | 282 kts | 123° |
| 2026-05-05 19:24 | 48.98543 | 2.86306 | 9155 ft | 287 kts | 153° |
| 2026-05-05 19:24 | 48.96616 | 2.86982 | 10067 ft | 291 kts | 180° |
| 2026-05-05 19:24 | 48.94604 | 2.86315 | 10711 ft | 304 kts | 200° |
| 2026-05-05 19:25 | 48.92594 | 2.85143 | 11177 ft | 322 kts | 200° |
| 2026-05-05 19:25 | 48.90442 | 2.83897 | 11749 ft | 335 kts | 200° |
| 2026-05-05 19:25 | 48.88260 | 2.82656 | 12535 ft | 339 kts | 201° |
| 2026-05-05 19:25 | 48.86047 | 2.81412 | 13375 ft | 341 kts | 201° |
| 2026-05-05 19:26 | 48.83802 | 2.80161 | 14216 ft | 343 kts | 201° |
| 2026-05-05 19:26 | 48.81593 | 2.78935 | 14974 ft | 345 kts | 200° |
| 2026-05-05 19:26 | 48.79320 | 2.77680 | 15742 ft | 348 kts | 201° |
| 2026-05-05 19:26 | 48.77047 | 2.76430 | 16448 ft | 351 kts | 200° |
| 2026-05-05 19:27 | 48.74749 | 2.75167 | 17144 ft | 354 kts | 200° |
| 2026-05-05 19:27 | 48.72435 | 2.73896 | 17832 ft | 357 kts | 200° |
| 2026-05-05 19:27 | 48.70092 | 2.72612 | 18469 ft | 358 kts | 200° |
| 2026-05-05 19:27 | 48.67731 | 2.71318 | 19056 ft | 364 kts | 200° |
| 2026-05-05 19:28 | 48.65356 | 2.70018 | 19699 ft | 368 kts | 200° |
| 2026-05-05 19:28 | 48.62938 | 2.68700 | 20307 ft | 372 kts | 198° |
| 2026-05-05 19:28 | 48.60379 | 2.67941 | 20675 ft | 381 kts | 179° |
| 2026-05-05 19:28 | 48.57777 | 2.68738 | 21111 ft | 387 kts | 161° |
| 2026-05-05 19:29 | 48.55260 | 2.70174 | 21729 ft | 390 kts | 158° |
| 2026-05-05 19:29 | 48.52721 | 2.71678 | 22327 ft | 393 kts | 158° |
| 2026-05-05 19:29 | 48.50174 | 2.73138 | 22909 ft | 396 kts | 159° |
| 2026-05-05 19:29 | 48.47557 | 2.74586 | 23483 ft | 399 kts | 159° |
| 2026-05-05 19:30 | 48.44942 | 2.75998 | 24025 ft | 402 kts | 159° |
| 2026-05-05 19:30 | 48.42302 | 2.77398 | 24548 ft | 405 kts | 159° |
| 2026-05-05 19:30 | 48.39662 | 2.78786 | 24806 ft | 407 kts | 159° |
| 2026-05-05 19:30 | 48.36976 | 2.80184 | 24814 ft | 406 kts | 159° |
| 2026-05-05 19:31 | 48.34320 | 2.81562 | 24819 ft | 405 kts | 160° |
| 2026-05-05 19:31 | 48.31649 | 2.82941 | 24824 ft | 405 kts | 160° |
| 2026-05-05 19:31 | 48.28984 | 2.84314 | 24817 ft | 404 kts | 160° |
| 2026-05-05 19:31 | 48.26315 | 2.85687 | 24819 ft | 404 kts | 159° |
| 2026-05-05 19:32 | 48.23681 | 2.87039 | 24816 ft | 403 kts | 160° |
| 2026-05-05 19:32 | 48.21034 | 2.88396 | 24822 ft | 403 kts | 160° |
| 2026-05-05 19:32 | 48.18377 | 2.89757 | 24819 ft | 403 kts | 160° |
| 2026-05-05 19:32 | 48.15713 | 2.91120 | 24818 ft | 403 kts | 160° |
| 2026-05-05 19:33 | 48.13071 | 2.92470 | 24817 ft | 403 kts | 160° |
| 2026-05-05 19:33 | 48.10432 | 2.93817 | 24817 ft | 403 kts | 160° |
| 2026-05-05 19:33 | 48.07761 | 2.95179 | 24821 ft | 403 kts | 160° |
| 2026-05-05 19:33 | 48.05103 | 2.96534 | 24819 ft | 403 kts | 160° |
| 2026-05-05 19:34 | 48.02451 | 2.97882 | 24822 ft | 403 kts | 160° |
| 2026-05-05 19:34 | 47.99785 | 2.99237 | 24821 ft | 403 kts | 160° |
| 2026-05-05 19:34 | 47.97151 | 3.00575 | 24821 ft | 403 kts | 160° |
| 2026-05-05 19:35 | 47.91846 | 3.03264 | 24824 ft | 402 kts | 160° |
| 2026-05-05 19:35 | 47.89218 | 3.04593 | 24817 ft | 401 kts | 160° |
| 2026-05-05 19:35 | 47.86562 | 3.05935 | 24823 ft | 401 kts | 160° |
| 2026-05-05 19:35 | 47.83941 | 3.07261 | 24830 ft | 400 kts | 160° |
| 2026-05-05 19:36 | 47.81310 | 3.08589 | 24828 ft | 399 kts | 160° |
| 2026-05-05 19:36 | 47.78651 | 3.09928 | 24823 ft | 400 kts | 160° |
| 2026-05-05 19:36 | 47.76007 | 3.11256 | 24823 ft | 399 kts | 160° |
| 2026-05-05 19:36 | 47.73371 | 3.12581 | 24827 ft | 399 kts | 160° |
| 2026-05-05 19:37 | 47.70734 | 3.13907 | 24829 ft | 399 kts | 160° |
| 2026-05-05 19:37 | 47.68110 | 3.15223 | 24823 ft | 399 kts | 160° |
| 2026-05-05 19:37 | 47.65491 | 3.16535 | 24818 ft | 399 kts | 160° |
| 2026-05-05 19:37 | 47.62848 | 3.17856 | 24817 ft | 399 kts | 160° |
| 2026-05-05 19:38 | 47.60235 | 3.19164 | 24823 ft | 399 kts | 160° |
| 2026-05-05 19:38 | 47.57619 | 3.20471 | 24822 ft | 398 kts | 161° |
| 2026-05-05 19:38 | 47.55000 | 3.21779 | 24828 ft | 398 kts | 161° |
| 2026-05-05 19:38 | 47.52370 | 3.23091 | 24831 ft | 398 kts | 161° |
| 2026-05-05 19:39 | 47.49732 | 3.24405 | 24830 ft | 397 kts | 161° |
| 2026-05-05 19:39 | 47.47144 | 3.25692 | 24836 ft | 397 kts | 161° |
| 2026-05-05 19:39 | 47.44505 | 3.27003 | 24836 ft | 397 kts | 161° |
| 2026-05-05 19:39 | 47.41910 | 3.28290 | 24842 ft | 397 kts | 161° |
| 2026-05-05 19:40 | 47.39278 | 3.29596 | 24845 ft | 396 kts | 161° |
| 2026-05-05 19:40 | 47.36683 | 3.30882 | 24847 ft | 396 kts | 161° |
| 2026-05-05 19:40 | 47.34086 | 3.32166 | 24846 ft | 396 kts | 161° |
| 2026-05-05 19:40 | 47.31465 | 3.33461 | 24845 ft | 396 kts | 161° |
| 2026-05-05 19:41 | 47.28871 | 3.34742 | 24851 ft | 396 kts | 162° |
| 2026-05-05 19:41 | 47.26241 | 3.36039 | 24855 ft | 395 kts | 162° |
| 2026-05-05 19:41 | 47.23655 | 3.37313 | 24855 ft | 395 kts | 162° |
| 2026-05-05 19:41 | 47.21057 | 3.38590 | 24852 ft | 396 kts | 162° |
| 2026-05-05 19:42 | 47.18440 | 3.39879 | 24859 ft | 395 kts | 162° |
| 2026-05-05 19:42 | 47.15840 | 3.41157 | 24861 ft | 395 kts | 162° |
| 2026-05-05 19:42 | 47.13234 | 3.42436 | 24862 ft | 395 kts | 162° |
| 2026-05-05 19:42 | 47.10639 | 3.43707 | 24859 ft | 395 kts | 162° |
| 2026-05-05 19:43 | 47.08046 | 3.44977 | 24869 ft | 395 kts | 162° |
| 2026-05-05 19:43 | 47.05423 | 3.46261 | 24862 ft | 395 kts | 162° |
| 2026-05-05 19:43 | 47.02800 | 3.47541 | 24861 ft | 395 kts | 162° |
| 2026-05-05 19:43 | 47.00221 | 3.48802 | 24868 ft | 395 kts | 162° |
| 2026-05-05 19:44 | 46.97599 | 3.50082 | 24869 ft | 394 kts | 162° |
| 2026-05-05 19:44 | 46.94991 | 3.51353 | 24869 ft | 395 kts | 162° |
| 2026-05-05 19:44 | 46.92411 | 3.52608 | 24867 ft | 394 kts | 162° |
| 2026-05-05 19:44 | 46.89788 | 3.53883 | 24865 ft | 394 kts | 162° |
| 2026-05-05 19:45 | 46.87207 | 3.55138 | 24866 ft | 393 kts | 163° |
| 2026-05-05 19:45 | 46.84627 | 3.56391 | 24866 ft | 392 kts | 163° |
| 2026-05-05 19:45 | 46.82330 | 3.57505 | 24864 ft | 392 kts | 163° |
| 2026-05-05 19:45 | 46.79746 | 3.58757 | 24863 ft | 391 kts | 163° |
| 2026-05-05 19:46 | 46.77143 | 3.60016 | 24863 ft | 392 kts | 163° |
| 2026-05-05 19:46 | 46.74580 | 3.61254 | 24864 ft | 391 kts | 162° |
| 2026-05-05 19:46 | 46.71999 | 3.62501 | 24865 ft | 392 kts | 163° |
| 2026-05-05 19:46 | 46.69416 | 3.63830 | 24537 ft | 391 kts | 161° |
| 2026-05-05 19:47 | 46.66899 | 3.65212 | 24071 ft | 387 kts | 161° |
| 2026-05-05 19:47 | 46.64380 | 3.66592 | 23571 ft | 384 kts | 161° |
| 2026-05-05 19:47 | 46.61887 | 3.67956 | 23067 ft | 382 kts | 161° |
| 2026-05-05 19:47 | 46.59379 | 3.69328 | 22561 ft | 380 kts | 161° |
| 2026-05-05 19:48 | 46.56940 | 3.70662 | 22065 ft | 377 kts | 161° |
| 2026-05-05 19:48 | 46.54487 | 3.72002 | 21568 ft | 375 kts | 161° |
| 2026-05-05 19:48 | 46.52040 | 3.73338 | 21067 ft | 373 kts | 161° |
| 2026-05-05 19:48 | 46.49650 | 3.74641 | 20583 ft | 370 kts | 161° |
| 2026-05-05 19:49 | 46.47235 | 3.75955 | 20091 ft | 368 kts | 161° |
| 2026-05-05 19:49 | 46.44851 | 3.77265 | 19677 ft | 365 kts | 160° |
| 2026-05-05 19:49 | 46.42504 | 3.78621 | 19677 ft | 367 kts | 160° |
| 2026-05-05 19:49 | 46.40145 | 3.80002 | 19617 ft | 369 kts | 160° |
| 2026-05-05 19:50 | 46.37817 | 3.81552 | 19098 ft | 370 kts | 152° |
| 2026-05-05 19:50 | 46.35741 | 3.83773 | 18645 ft | 370 kts | 139° |
| 2026-05-05 19:50 | 46.34030 | 3.86538 | 18555 ft | 372 kts | 131° |
| 2026-05-05 19:50 | 46.32451 | 3.89491 | 18296 ft | 371 kts | 130° |
| 2026-05-05 19:51 | 46.30885 | 3.92476 | 18035 ft | 369 kts | 129° |
| 2026-05-05 19:51 | 46.29347 | 3.95409 | 17776 ft | 368 kts | 130° |
| 2026-05-05 19:51 | 46.27804 | 3.98338 | 17516 ft | 367 kts | 130° |
| 2026-05-05 19:51 | 46.26264 | 4.01245 | 17261 ft | 365 kts | 130° |
| 2026-05-05 19:52 | 46.24718 | 4.04156 | 17007 ft | 363 kts | 130° |
| 2026-05-05 19:52 | 46.23186 | 4.07035 | 16752 ft | 363 kts | 130° |
| 2026-05-05 19:52 | 46.21640 | 4.09936 | 16498 ft | 361 kts | 130° |
| 2026-05-05 19:52 | 46.20118 | 4.12790 | 16246 ft | 360 kts | 130° |
| 2026-05-05 19:53 | 46.18594 | 4.15650 | 15989 ft | 359 kts | 129° |
| 2026-05-05 19:53 | 46.17347 | 4.18748 | 15710 ft | 361 kts | 116° |
| 2026-05-05 19:53 | 46.16415 | 4.22149 | 15041 ft | 366 kts | 112° |
| 2026-05-05 19:53 | 46.15538 | 4.25610 | 14283 ft | 372 kts | 112° |
| 2026-05-05 19:54 | 46.14645 | 4.29075 | 13676 ft | 372 kts | 112° |
| 2026-05-05 19:54 | 46.13723 | 4.32557 | 13178 ft | 369 kts | 112° |
| 2026-05-05 19:54 | 46.12797 | 4.35979 | 12699 ft | 366 kts | 113° |
| 2026-05-05 19:54 | 46.11870 | 4.39358 | 12274 ft | 362 kts | 113° |
| 2026-05-05 19:55 | 46.10953 | 4.42677 | 11963 ft | 354 kts | 113° |
| 2026-05-05 19:55 | 46.10046 | 4.45934 | 11660 ft | 347 kts | 113° |
| 2026-05-05 19:55 | 46.09151 | 4.49138 | 11363 ft | 341 kts | 113° |
| 2026-05-05 19:55 | 46.08272 | 4.52273 | 11041 ft | 336 kts | 113° |
| 2026-05-05 19:56 | 46.07398 | 4.55382 | 10717 ft | 331 kts | 113° |
| 2026-05-05 19:56 | 46.06553 | 4.58384 | 10357 ft | 322 kts | 113° |
| 2026-05-05 19:56 | 46.05726 | 4.61323 | 9967 ft | 313 kts | 113° |
| 2026-05-05 19:56 | 46.04917 | 4.64191 | 9616 ft | 298 kts | 113° |
| 2026-05-05 19:57 | 46.04162 | 4.66874 | 9145 ft | 288 kts | 113° |
| 2026-05-05 19:57 | 46.03458 | 4.69360 | 8497 ft | 286 kts | 113° |
| 2026-05-05 19:57 | 46.02698 | 4.72046 | 7802 ft | 283 kts | 113° |
| 2026-05-05 19:57 | 46.01987 | 4.74554 | 7158 ft | 280 kts | 113° |
| 2026-05-05 19:58 | 46.01254 | 4.77140 | 6494 ft | 276 kts | 113° |
| 2026-05-05 19:58 | 46.00542 | 4.79650 | 6043 ft | 267 kts | 113° |
| 2026-05-05 19:58 | 45.99853 | 4.82080 | 5689 ft | 259 kts | 113° |
| 2026-05-05 19:58 | 45.99185 | 4.84436 | 5377 ft | 254 kts | 113° |
| 2026-05-05 19:59 | 45.98528 | 4.86750 | 5072 ft | 251 kts | 114° |
| 2026-05-05 19:59 | 45.97872 | 4.89051 | 4823 ft | 244 kts | 114° |
| 2026-05-05 19:59 | 45.97237 | 4.91277 | 4541 ft | 237 kts | 114° |
| 2026-05-05 19:59 | 45.96623 | 4.93433 | 4304 ft | 230 kts | 114° |
| 2026-05-05 20:00 | 45.96028 | 4.95513 | 3971 ft | 224 kts | 114° |
| 2026-05-05 20:00 | 45.95445 | 4.97552 | 3666 ft | 217 kts | 114° |
| 2026-05-05 20:00 | 45.94880 | 4.99528 | 3410 ft | 212 kts | 114° |
| 2026-05-05 20:00 | 45.94321 | 5.01475 | 3250 ft | 209 kts | 114° |
| 2026-05-05 20:01 | 45.93767 | 5.03404 | 3183 ft | 208 kts | 114° |
| 2026-05-05 20:01 | 45.93180 | 5.05305 | 3117 ft | 207 kts | 125° |
| 2026-05-05 20:01 | 45.92110 | 5.06607 | 3008 ft | 204 kts | 159° |
| 2026-05-05 20:01 | 45.90736 | 5.07108 | 3007 ft | 202 kts | 172° |
| 2026-05-05 20:02 | 45.89365 | 5.07305 | 3004 ft | 200 kts | 176° |
| 2026-05-05 20:02 | 45.87979 | 5.07443 | 3002 ft | 200 kts | 176° |
| 2026-05-05 20:02 | 45.86632 | 5.07584 | 2995 ft | 194 kts | 175° |
| 2026-05-05 20:02 | 45.85339 | 5.07735 | 2980 ft | 183 kts | 175° |
| 2026-05-05 20:03 | 45.84062 | 5.07892 | 2830 ft | 181 kts | 175° |
| 2026-05-05 20:03 | 45.82830 | 5.08045 | 2666 ft | 177 kts | 175° |
| 2026-05-05 20:03 | 45.81622 | 5.08194 | 2398 ft | 170 kts | 175° |
| 2026-05-05 20:03 | 45.80481 | 5.08315 | 2168 ft | 157 kts | 176° |
| 2026-05-05 20:04 | 45.79431 | 5.08454 | 1943 ft | 144 kts | 174° |
| 2026-05-05 20:04 | 45.78477 | 5.08603 | 1739 ft | 130 kts | 175° |
| 2026-05-05 20:04 | 45.77602 | 5.08709 | 1557 ft | 124 kts | 177° |
| 2026-05-05 20:04 | 45.76746 | 5.08801 | 1399 ft | 123 kts | 176° |
| 2026-05-05 20:05 | 45.75898 | 5.08896 | 1261 ft | 123 kts | 176° |
| 2026-05-05 20:05 | 45.75042 | 5.09000 | 1117 ft | 122 kts | 176° |
| 2026-05-05 20:05 | 45.74200 | 5.09099 | 949 ft | 123 kts | 175° |
| 2026-05-05 20:05 | 45.73348 | 5.09204 | 802 ft | 122 kts | 175° |
| 2026-05-05 20:06 | 45.72590 | 5.09297 | 802 ft | 87 kts | 174° |
| 2026-05-05 20:06 | 45.72151 | 5.09352 | 811 ft | 39 kts | 175° |
| 2026-05-05 20:06 | 45.71967 | 5.09371 | 814 ft | 25 kts | 175° |
| 2026-05-05 20:06 | 45.71796 | 5.09348 | 817 ft | 21 kts | 195° |
| 2026-05-05 20:07 | 45.71669 | 5.09268 | 817 ft | 13 kts | 213° |
| 2026-05-05 20:07 | 45.71636 | 5.09169 | 816 ft | 8 kts | 264° |
| 2026-05-05 20:07 | 45.71633 | 5.09118 | 815 ft | 0 kts | 264° |
| 2026-05-05 20:10 | 45.71631 | 5.09091 | 815 ft | 13 kts | 264° |
| 2026-05-05 20:10 | 45.71623 | 5.08964 | 813 ft | 13 kts | 264° |
| 2026-05-05 20:10 | 45.71615 | 5.08823 | 811 ft | 15 kts | 265° |
| 2026-05-05 20:10 | 45.71613 | 5.08737 | 809 ft | 5 kts | 279° |
| 2026-05-05 20:11 | 45.71613 | 5.08680 | 808 ft | 6 kts | 249° |
| 2026-05-05 20:11 | 45.71600 | 5.08599 | 806 ft | 10 kts | 266° |
| 2026-05-05 20:11 | 45.71615 | 5.08511 | 804 ft | 7 kts | 326° |
| 2026-05-05 20:11 | 45.71674 | 5.08493 | 803 ft | 10 kts | 355° |
| 2026-05-05 20:12 | 45.71752 | 5.08483 | 801 ft | 12 kts | 355° |
| 2026-05-05 20:12 | 45.71842 | 5.08473 | 800 ft | 13 kts | 355° |
| 2026-05-05 20:12 | 45.71923 | 5.08455 | 799 ft | 9 kts | 329° |
| 2026-05-05 20:12 | 45.71954 | 5.08379 | 797 ft | 10 kts | 285° |
| 2026-05-05 20:13 | 45.71977 | 5.08266 | 795 ft | 4 kts | 282° |
| 2026-05-05 20:13 | 45.71975 | 5.08218 | 794 ft | 7 kts | 271° |
| 2026-05-05 20:13 | 45.71988 | 5.08139 | 793 ft | 6 kts | 285° |
| 2026-05-05 20:13 | 45.71986 | 5.08082 | 793 ft | 5 kts | 252° |
| 2026-05-05 20:14 | 45.71978 | 5.08057 | 792 ft | 0 kts | 243° |
| 2026-05-05 20:14 | 45.71975 | 5.08047 | 792 ft | 1 kts | 241° |
| 2026-05-05 20:14 | 45.71973 | 5.08043 | 792 ft | 0 kts | 240° |
| 2026-05-05 20:14 | 45.71972 | 5.08039 | 792 ft | 0 kts | 240° |